Return to the overview of this dataset or to the list of all FOR816 datasets.


Value filter for entity: Microclimate(id: 421) of dataset: Forest microclimate ECSF tree T122 understorey (z1) (dsid: 625)

Select attribute to work with:



Order by

Aggregate by date/time

on attribute:

Draw graph of subset

    x     y1     y2  
     
Ta_2m (air temperature in 2m)
Huma_2m (Air humidity 2m)
datetime (Date and Time)

Results:

page: 1 / 85 , page size: , max results: 4219

Ta_2m Huma_2m datetime
15.21 103.9 2004-11-02 23:00:00
15.09 103.9 2004-11-02 23:30:00
15.09 103.9 2004-11-03 00:00:00
15.07 103.9 2004-11-03 00:30:00
14.99 103.9 2004-11-03 01:00:00
14.99 103.9 2004-11-03 01:30:00
14.95 103.9 2004-11-03 02:00:00
14.9 103.9 2004-11-03 02:30:00
14.85 103.9 2004-11-03 03:00:00
14.85 103.9 2004-11-03 03:30:00
14.85 103.9 2004-11-03 04:00:00
14.85 103.9 2004-11-03 04:30:00
14.87 103.9 2004-11-03 05:00:00
14.83 103.9 2004-11-03 05:30:00
14.8 103.9 2004-11-03 06:00:00
14.8 103.9 2004-11-03 06:30:00
14.99 103.9 2004-11-03 07:00:00
15.3 103.9 2004-11-03 07:30:00
15.57 103.9 2004-11-03 08:00:00
15.69 103.9 2004-11-03 08:30:00
15.93 103.9 2004-11-03 09:00:00
16.04 103.9 2004-11-03 09:30:00
16.35 103.9 2004-11-03 10:00:00
16.52 103.9 2004-11-03 10:30:00
17.02 103.9 2004-11-03 11:00:00
17.45 103.9 2004-11-03 11:30:00
18.07 103.3 2004-11-03 12:00:00
17.73 102.1 2004-11-03 12:30:00
18.09 103.9 2004-11-03 13:00:00
17.92 103.9 2004-11-03 13:30:00
17.76 103.0 2004-11-03 14:00:00
18.83 94.9 2004-11-03 14:30:00
19.88 92.9 2004-11-03 15:00:00
20.61 80.3 2004-11-03 15:30:00
20.59 80.8 2004-11-03 16:00:00
19.23 92.5 2004-11-03 16:30:00
18.38 96.4 2004-11-03 17:00:00
17.78 103.9 2004-11-03 17:30:00
17.14 103.9 2004-11-03 18:00:00
16.66 103.9 2004-11-03 18:30:00
16.33 103.9 2004-11-03 19:00:00
16.14 103.9 2004-11-03 19:30:00
16.0 103.9 2004-11-03 20:00:00
15.97 103.9 2004-11-03 20:30:00
15.78 103.9 2004-11-03 21:00:00
15.64 103.9 2004-11-03 21:30:00
15.5 103.9 2004-11-03 22:00:00
15.45 103.9 2004-11-03 22:30:00
15.35 103.9 2004-11-03 23:00:00
15.35 103.9 2004-11-03 23:30:00

page: 1 / 85 , max results: 4219


Return to the overview of this dataset or to the list of all FOR816 datasets.



Quick search

  • Publications:
  • Datasets: